createdAt,value
2024-01-14T00:00:35.828Z,2.88
2024-01-14T00:03:02.957Z,2.87
2024-01-14T00:05:29.915Z,2.88
2024-01-14T00:07:57.068Z,2.08
2024-01-14T00:10:23.662Z,7.55
2024-01-14T00:12:50.212Z,3.70
2024-01-14T00:15:19.100Z,3.33
2024-01-14T00:17:46.725Z,3.23
2024-01-14T00:20:13.600Z,2.08
2024-01-14T00:22:40.329Z,2.55
2024-01-14T00:25:07.456Z,2.33
2024-01-14T00:27:34.099Z,1.35
2024-01-14T00:30:01.559Z,2.00
2024-01-14T00:32:28.255Z,1.60
2024-01-14T00:34:54.913Z,2.63
2024-01-14T00:37:21.418Z,2.55
2024-01-14T00:39:47.906Z,2.10
2024-01-14T00:42:14.421Z,1.90
2024-01-14T00:44:42.669Z,2.38
2024-01-14T00:47:09.288Z,1.25
2024-01-14T00:49:36.086Z,9.27
2024-01-14T00:52:02.959Z,4.30
2024-01-14T00:54:29.695Z,1.77
2024-01-14T00:56:56.280Z,1.33
2024-01-14T00:59:23.023Z,1.17
2024-01-14T01:01:49.560Z,2.05
2024-01-14T01:04:16.127Z,4.93
2024-01-14T01:06:42.781Z,3.15
2024-01-14T01:09:09.378Z,2.83
2024-01-14T01:11:35.954Z,4.75
2024-01-14T01:14:02.573Z,3.95
2024-01-14T01:16:29.164Z,4.60
2024-01-14T01:18:56.192Z,2.95
2024-01-14T01:21:23.576Z,2.25
2024-01-14T01:23:50.560Z,3.95
2024-01-14T01:26:17.237Z,2.53
2024-01-14T01:28:43.909Z,3.22
2024-01-14T01:41:41.090Z,6.05
2024-01-14T01:44:07.913Z,6.10
2024-01-14T01:46:35.856Z,4.40
2024-01-14T01:49:02.836Z,5.22
2024-01-14T01:51:30.366Z,3.95
2024-01-14T01:53:57.327Z,4.03
2024-01-14T01:56:23.947Z,5.68
2024-01-14T01:58:50.469Z,4.00
2024-01-14T02:01:17.047Z,2.55
2024-01-14T02:03:43.686Z,2.53
2024-01-14T02:06:11.145Z,2.45
2024-01-14T02:08:37.911Z,3.95
2024-01-14T02:11:04.617Z,3.13
2024-01-14T02:13:31.145Z,2.78
2024-01-14T02:15:57.814Z,6.00
2024-01-14T02:18:24.495Z,3.15
2024-01-14T02:20:51.088Z,5.95
2024-01-14T02:23:20.869Z,2.38
2024-01-14T02:25:47.572Z,2.90
2024-01-14T02:28:15.846Z,2.90
2024-01-14T02:30:42.436Z,1.42
2024-01-14T02:33:09.119Z,4.63
2024-01-14T02:35:35.791Z,1.45
2024-01-14T02:38:02.273Z,0.57
2024-01-14T02:40:28.780Z,2.30
2024-01-14T02:42:55.436Z,0.75
2024-01-14T02:45:22.058Z,2.20
2024-01-14T02:47:49.018Z,0.88
2024-01-14T02:50:15.674Z,3.50
2024-01-14T02:52:42.188Z,1.70
2024-01-14T02:55:08.775Z,4.07
2024-01-14T02:57:35.535Z,4.82
2024-01-14T03:00:02.288Z,2.35
2024-01-14T03:02:28.909Z,5.90
2024-01-14T03:04:55.416Z,4.03
2024-01-14T03:07:21.913Z,7.25
2024-01-14T03:09:48.696Z,3.05
2024-01-14T03:12:15.344Z,4.90
2024-01-14T03:14:41.851Z,3.28
2024-01-14T03:17:08.363Z,2.83
2024-01-14T03:19:34.994Z,3.85
2024-01-14T03:22:01.610Z,11.57
2024-01-14T03:24:28.290Z,3.13
2024-01-14T03:26:54.947Z,1.75
2024-01-14T03:29:21.711Z,3.15
2024-01-14T03:31:48.230Z,2.03
2024-01-14T03:34:14.782Z,1.20
2024-01-14T03:36:41.306Z,0.60
2024-01-14T03:39:08.374Z,0.88
2024-01-14T03:41:35.034Z,0.80
2024-01-14T03:44:01.547Z,3.47
2024-01-14T03:46:28.278Z,1.27
2024-01-14T03:48:55.038Z,0.93
2024-01-14T03:51:21.645Z,1.38
2024-01-14T03:53:48.268Z,0.85
2024-01-14T03:56:14.907Z,0.40
2024-01-14T03:58:41.577Z,1.23
2024-01-14T04:03:39.501Z,1.38
2024-01-14T04:06:06.530Z,0.47
2024-01-14T04:08:33.092Z,0.55
2024-01-14T04:10:59.792Z,1.85
2024-01-14T04:13:26.305Z,1.60
2024-01-14T04:15:52.822Z,0.45
2024-01-14T04:18:19.465Z,2.22
2024-01-14T04:20:46.224Z,2.78
2024-01-14T04:23:12.899Z,0.20
2024-01-14T04:25:39.598Z,0.68
2024-01-14T04:28:06.182Z,0.73
2024-01-14T04:30:32.898Z,1.80
2024-01-14T04:32:59.793Z,0.60
2024-01-14T04:35:26.514Z,1.52
2024-01-14T04:37:53.184Z,1.05
2024-01-14T04:40:19.734Z,0.43
2024-01-14T04:42:46.256Z,3.85
2024-01-14T04:45:12.909Z,0.65
2024-01-14T04:47:39.769Z,1.20
2024-01-14T04:50:06.819Z,2.55
2024-01-14T04:52:33.461Z,3.30
2024-01-14T04:54:59.975Z,2.95
2024-01-14T04:57:26.733Z,3.55
2024-01-14T04:59:53.278Z,4.13
2024-01-14T05:02:19.980Z,1.73
2024-01-14T05:04:47.158Z,4.22
2024-01-14T05:07:13.685Z,2.20
2024-01-14T05:09:40.209Z,1.80
2024-01-14T05:12:06.912Z,1.75
2024-01-14T05:14:33.507Z,1.80
2024-01-14T05:17:00.070Z,1.02
2024-01-14T05:19:27.239Z,3.60
2024-01-14T05:21:54.328Z,2.53
2024-01-14T05:24:23.205Z,2.95
2024-01-14T05:26:49.776Z,2.25
2024-01-14T05:29:16.339Z,2.15
2024-01-14T05:31:42.953Z,2.97
2024-01-14T05:34:09.536Z,3.47
2024-01-14T05:36:37.199Z,1.92
2024-01-14T05:39:05.650Z,2.38
2024-01-14T05:41:32.472Z,1.33
2024-01-14T05:43:59.059Z,1.17
2024-01-14T05:46:25.623Z,1.25
2024-01-14T05:48:52.278Z,2.05
2024-01-14T05:51:19.046Z,1.08
2024-01-14T05:53:45.844Z,2.83
2024-01-14T05:56:12.411Z,1.77
2024-01-14T05:58:41.029Z,1.88
2024-01-14T06:01:07.584Z,2.20
2024-01-14T06:03:34.166Z,1.08
2024-01-14T06:06:00.919Z,2.08
2024-01-14T06:08:27.538Z,0.70
2024-01-14T06:10:54.047Z,1.48
2024-01-14T06:13:20.635Z,0.90
2024-01-14T06:15:47.230Z,0.40
2024-01-14T06:18:14.203Z,3.22
2024-01-14T06:20:40.773Z,0.90
2024-01-14T06:23:07.270Z,0.77
2024-01-14T06:25:33.851Z,1.02
2024-01-14T06:28:00.427Z,0.20
2024-01-14T06:30:27.119Z,1.02
2024-01-14T06:32:56.969Z,0.73
2024-01-14T06:37:50.993Z,0.30
2024-01-14T06:40:21.790Z,1.02
2024-01-14T06:42:55.157Z,0.65
2024-01-14T06:45:22.431Z,4.68
2024-01-14T06:47:49.636Z,4.10
2024-01-14T06:50:17.005Z,0.98
2024-01-14T06:52:43.927Z,1.20
2024-01-14T06:55:12.777Z,0.80
2024-01-14T06:57:39.526Z,1.95
2024-01-14T07:00:07.052Z,1.55
2024-01-14T07:02:33.629Z,4.28
2024-01-14T07:05:00.339Z,1.15
2024-01-14T07:07:26.862Z,1.23
2024-01-14T07:09:53.460Z,1.45
2024-01-14T07:12:25.287Z,1.13
2024-01-14T07:14:52.557Z,2.05
2024-01-14T07:17:20.378Z,2.40
2024-01-14T07:19:47.034Z,3.50
2024-01-14T07:22:13.832Z,3.08
2024-01-14T07:24:40.402Z,4.43
2024-01-14T07:27:07.208Z,0.60
2024-01-14T07:29:34.284Z,1.00
2024-01-14T07:32:03.422Z,1.98
2024-01-14T07:34:31.793Z,4.85
2024-01-14T07:36:58.311Z,1.30
2024-01-14T07:39:25.519Z,1.88
2024-01-14T07:41:52.120Z,7.95
2024-01-14T07:44:18.776Z,2.05
2024-01-14T07:46:46.650Z,4.22
2024-01-14T07:49:13.288Z,1.35
2024-01-14T07:51:40.001Z,3.05
2024-01-14T07:54:06.889Z,1.77
2024-01-14T07:56:33.684Z,2.20
2024-01-14T07:59:00.406Z,4.82
2024-01-14T08:01:27.002Z,1.88
2024-01-14T08:03:53.749Z,2.28
2024-01-14T08:06:22.174Z,2.75
2024-01-14T08:08:49.022Z,4.00
2024-01-14T08:11:15.554Z,4.40
2024-01-14T08:13:42.548Z,2.25
2024-01-14T08:16:09.225Z,5.57
2024-01-14T08:18:35.904Z,9.70
2024-01-14T08:21:02.749Z,5.80
2024-01-14T08:23:35.298Z,3.05
2024-01-14T08:26:05.731Z,3.20
2024-01-14T08:28:32.688Z,4.93
2024-01-14T08:30:59.377Z,5.13
2024-01-14T08:33:26.192Z,4.18
2024-01-14T08:35:52.915Z,2.72
2024-01-14T08:38:19.891Z,4.00
2024-01-14T08:40:46.407Z,3.97
2024-01-14T08:43:12.939Z,4.13
2024-01-14T08:45:39.642Z,3.00
2024-01-14T08:48:07.975Z,3.17
2024-01-14T08:50:35.586Z,3.03
2024-01-14T08:53:02.287Z,3.60
2024-01-14T08:55:29.836Z,3.38
2024-01-14T08:57:56.585Z,1.65
2024-01-14T09:00:23.594Z,3.17
2024-01-14T09:02:50.342Z,5.68
2024-01-14T09:05:18.162Z,3.28
2024-01-14T09:07:44.756Z,2.00
2024-01-14T09:10:11.775Z,2.67
2024-01-14T09:12:38.612Z,3.20
2024-01-14T09:15:05.738Z,4.25
2024-01-14T09:17:33.020Z,2.58
2024-01-14T09:19:59.812Z,2.10
2024-01-14T09:22:26.450Z,1.75
2024-01-14T09:24:52.992Z,8.43
2024-01-14T09:27:19.534Z,4.72
2024-01-14T09:29:46.225Z,4.60
2024-01-14T09:32:12.842Z,1.95
2024-01-14T09:34:41.317Z,2.33
2024-01-14T09:37:08.068Z,3.03
2024-01-14T09:39:34.839Z,1.85
2024-01-14T09:42:34.430Z,2.20
2024-01-14T09:45:01.753Z,6.65
2024-01-14T09:47:32.667Z,4.68
2024-01-14T09:50:00.499Z,6.43
2024-01-14T09:52:27.267Z,6.65
2024-01-14T09:54:53.849Z,8.32
2024-01-14T09:57:23.904Z,7.53
2024-01-14T10:00:10.450Z,9.15
2024-01-14T10:02:38.407Z,5.75
2024-01-14T10:05:05.992Z,6.30
2024-01-14T10:07:33.615Z,8.27
2024-01-14T10:10:01.036Z,7.00
2024-01-14T10:12:28.067Z,8.82
2024-01-14T10:15:00.979Z,6.50
2024-01-14T10:17:28.920Z,8.98
2024-01-14T10:19:56.295Z,8.82
2024-01-14T10:22:23.406Z,8.73
2024-01-14T10:24:54.324Z,8.82
2024-01-14T10:27:34.793Z,8.85
2024-01-14T10:30:15.758Z,7.13
2024-01-14T10:33:16.879Z,10.90
2024-01-14T10:35:31.379Z,8.93
2024-01-14T10:37:59.118Z,6.97
2024-01-14T10:40:26.626Z,7.10
2024-01-14T10:42:54.233Z,8.18
2024-01-14T10:45:21.663Z,11.82
2024-01-14T10:47:49.247Z,13.65
2024-01-14T10:50:18.638Z,6.68
2024-01-14T10:52:51.076Z,15.05
2024-01-14T10:58:28.582Z,11.13
2024-01-14T11:01:02.810Z,7.45
2024-01-14T11:03:30.949Z,6.63
2024-01-14T11:06:44.764Z,9.63
2024-01-14T11:09:44.552Z,7.57
2024-01-14T11:12:20.966Z,8.68
2024-01-14T11:14:55.205Z,6.82
2024-01-14T11:20:17.860Z,10.07
2024-01-14T11:50:54.311Z,7.75
2024-01-14T11:53:21.252Z,8.30
2024-01-14T11:59:10.973Z,11.05
2024-01-14T12:07:01.513Z,10.70
2024-01-14T12:09:28.391Z,8.50
2024-01-14T12:11:56.200Z,9.35
2024-01-14T12:14:22.892Z,12.90
2024-01-14T12:16:49.566Z,11.10
2024-01-14T12:19:27.879Z,10.63
2024-01-14T12:21:55.367Z,7.15
2024-01-14T12:24:21.950Z,7.35
2024-01-14T12:26:48.705Z,7.38
2024-01-14T12:29:15.296Z,9.73
2024-01-14T12:32:16.539Z,10.38
2024-01-14T12:48:11.877Z,11.25
2024-01-14T13:04:28.992Z,8.88
2024-01-14T14:51:22.393Z,6.50
2024-01-14T14:53:57.044Z,7.38
2024-01-14T15:01:43.629Z,8.05
2024-01-14T15:04:13.929Z,7.07
2024-01-14T15:06:42.334Z,8.77
2024-01-14T15:09:09.728Z,8.25
2024-01-14T15:11:39.360Z,7.38
2024-01-14T15:14:07.884Z,7.82
2024-01-14T15:16:34.867Z,7.85
2024-01-14T15:19:01.949Z,12.05
2024-01-14T15:21:29.480Z,8.13
2024-01-14T15:23:56.158Z,8.90
2024-01-14T15:26:23.670Z,9.32
2024-01-14T15:28:50.477Z,10.65
2024-01-14T15:31:17.354Z,10.60
2024-01-14T15:33:53.639Z,10.93
2024-01-14T15:39:15.218Z,7.60
2024-01-14T15:42:04.202Z,8.88
2024-01-14T15:44:36.586Z,13.30
2024-01-14T15:47:05.473Z,9.77
2024-01-14T15:49:32.938Z,6.80
2024-01-14T15:52:08.652Z,19.30
2024-01-14T15:54:35.584Z,7.38
2024-01-14T15:57:18.366Z,11.68
2024-01-14T15:59:47.266Z,8.95
2024-01-14T16:02:17.414Z,10.75
2024-01-14T16:04:45.139Z,17.05
2024-01-14T16:07:11.895Z,11.43
2024-01-14T16:09:40.109Z,8.38
2024-01-14T16:12:08.260Z,10.88
2024-01-14T16:14:36.390Z,8.88
2024-01-14T16:17:05.785Z,9.38
2024-01-14T16:19:33.177Z,15.40
2024-01-14T16:22:00.312Z,9.43
2024-01-14T16:24:28.299Z,11.48
2024-01-14T16:26:55.672Z,15.63
2024-01-14T16:29:24.080Z,10.73
2024-01-14T16:31:51.082Z,12.43
2024-01-14T16:34:17.960Z,16.52
2024-01-14T16:36:46.510Z,13.63
2024-01-14T16:39:14.410Z,11.48
2024-01-14T16:41:44.225Z,17.88
2024-01-14T16:44:12.353Z,14.77
2024-01-14T16:46:40.568Z,10.23
2024-01-14T16:49:08.336Z,14.63
2024-01-14T16:51:38.814Z,19.02
2024-01-14T16:54:08.120Z,12.98
2024-01-14T16:56:38.577Z,28.90
2024-01-14T17:01:36.598Z,13.05
2024-01-14T17:04:03.828Z,14.77
2024-01-14T17:06:33.217Z,13.73
2024-01-14T17:09:02.583Z,14.90
2024-01-14T17:11:32.046Z,13.13
2024-01-14T17:13:58.742Z,14.40
2024-01-14T17:16:28.639Z,11.43
2024-01-14T17:21:27.261Z,14.35
2024-01-14T17:23:54.557Z,16.05
2024-01-14T17:26:21.755Z,10.43
2024-01-14T17:28:48.980Z,12.15
2024-01-14T17:31:17.232Z,10.00
2024-01-14T17:33:45.459Z,11.95
2024-01-14T17:36:13.492Z,11.65
2024-01-14T17:38:40.649Z,12.32
2024-01-14T17:41:09.274Z,13.82
2024-01-14T17:43:38.357Z,12.20
2024-01-14T17:46:08.276Z,12.98
2024-01-14T17:48:41.664Z,12.68
2024-01-14T17:51:10.111Z,10.77
2024-01-14T17:53:38.326Z,11.10
2024-01-14T17:56:05.897Z,11.68
2024-01-14T17:58:32.703Z,9.75
2024-01-14T18:01:00.860Z,12.15
2024-01-14T18:03:27.845Z,9.77
2024-01-14T18:05:54.873Z,11.63
2024-01-14T18:08:22.093Z,10.75
2024-01-14T18:10:52.098Z,12.75
2024-01-14T18:13:19.293Z,11.60
2024-01-14T18:15:47.201Z,12.20
2024-01-14T18:18:16.504Z,13.88
2024-01-14T18:20:43.646Z,13.10
2024-01-14T18:23:13.037Z,12.13
2024-01-14T18:25:44.829Z,12.90
2024-01-14T18:28:12.698Z,12.90
2024-01-14T18:30:40.756Z,11.75
2024-01-14T18:33:11.888Z,14.82
2024-01-14T18:35:44.153Z,14.68
2024-01-14T18:40:56.039Z,12.40
2024-01-14T18:43:22.791Z,14.30
2024-01-14T18:45:49.493Z,13.45
2024-01-14T18:48:23.431Z,17.10
2024-01-14T18:50:52.750Z,10.95
2024-01-14T18:53:19.553Z,9.55
2024-01-14T18:55:46.208Z,12.00
2024-01-14T19:00:54.600Z,12.13
2024-01-14T19:03:21.470Z,18.67
2024-01-14T19:05:48.898Z,11.57
2024-01-14T19:11:01.872Z,13.73
2024-01-14T19:13:29.375Z,19.10
2024-01-14T19:15:56.303Z,19.85
2024-01-14T19:18:23.348Z,9.60
2024-01-14T19:20:50.006Z,13.27
2024-01-14T19:23:16.553Z,14.27
2024-01-14T19:33:50.536Z,19.27
2024-01-14T19:36:17.842Z,15.27
2024-01-14T19:38:44.511Z,18.15
2024-01-14T19:41:11.360Z,14.35
2024-01-14T19:44:08.594Z,15.05
2024-01-14T19:46:38.240Z,15.77
2024-01-14T19:49:05.281Z,13.65
2024-01-14T19:51:34.012Z,18.70
2024-01-14T19:54:04.934Z,17.00
2024-01-14T19:56:32.981Z,18.00
2024-01-14T19:58:59.760Z,13.82
2024-01-14T20:01:26.553Z,12.35
2024-01-14T20:03:53.210Z,20.42
2024-01-14T20:06:23.509Z,10.90
2024-01-14T20:08:50.754Z,15.63
2024-01-14T20:11:17.491Z,19.67
2024-01-14T20:13:44.321Z,18.15
2024-01-14T20:16:10.890Z,19.27
2024-01-14T20:18:38.581Z,16.25
2024-01-14T20:21:06.265Z,14.30
2024-01-14T20:23:33.100Z,11.10
2024-01-14T20:25:59.754Z,12.40
2024-01-14T20:28:26.459Z,17.60
2024-01-14T20:30:53.324Z,14.30
2024-01-14T20:33:20.124Z,13.27
2024-01-14T20:35:47.102Z,12.10
2024-01-14T20:38:14.457Z,13.52
2024-01-14T20:40:41.036Z,12.48
2024-01-14T20:43:07.743Z,16.17
2024-01-14T20:45:34.429Z,13.80
2024-01-14T20:48:01.464Z,13.98
2024-01-14T20:50:28.250Z,13.27
2024-01-14T20:52:55.031Z,9.55
2024-01-14T20:55:22.777Z,11.30
2024-01-14T20:57:49.793Z,8.63
2024-01-14T21:00:16.681Z,13.65
2024-01-14T21:02:43.350Z,11.88
2024-01-14T21:05:10.147Z,15.32
2024-01-14T21:07:36.992Z,10.10
2024-01-14T21:10:03.915Z,12.65
2024-01-14T21:12:30.529Z,13.30
2024-01-14T21:18:03.039Z,14.05
2024-01-14T21:20:50.001Z,16.35
2024-01-14T21:23:18.633Z,12.52
2024-01-14T21:25:46.158Z,17.50
2024-01-14T21:28:13.049Z,14.50
2024-01-14T21:30:43.594Z,12.27
2024-01-14T21:33:11.486Z,13.95
2024-01-14T21:35:38.430Z,14.10
2024-01-14T21:38:09.033Z,12.35
2024-01-14T21:40:37.389Z,15.52
2024-01-14T21:43:05.462Z,16.10
2024-01-14T21:45:32.438Z,14.68
2024-01-14T21:47:59.378Z,11.80
2024-01-14T21:50:27.138Z,13.77
2024-01-14T21:52:54.432Z,12.60
2024-01-14T21:55:21.734Z,12.43
2024-01-14T21:57:51.996Z,6.72
2024-01-14T22:00:19.153Z,5.03
2024-01-14T22:02:46.717Z,4.63
2024-01-14T22:05:14.061Z,2.97
2024-01-14T22:07:41.184Z,5.03
2024-01-14T22:10:08.452Z,4.82
2024-01-14T22:12:35.417Z,5.15
2024-01-14T22:15:02.785Z,3.17
2024-01-14T22:17:29.435Z,5.05
2024-01-14T22:19:57.073Z,2.67
2024-01-14T22:22:23.763Z,15.02
2024-01-14T22:24:50.528Z,13.82
2024-01-14T22:27:17.234Z,10.90
2024-01-14T22:29:43.884Z,14.65
2024-01-14T22:32:11.313Z,16.27
2024-01-14T22:34:38.350Z,12.18
2024-01-14T22:37:05.254Z,16.52
2024-01-14T22:39:32.462Z,12.90
2024-01-14T22:41:59.326Z,11.90
2024-01-14T22:44:26.161Z,9.43
2024-01-14T22:46:52.926Z,12.82
2024-01-14T22:49:20.180Z,8.85
2024-01-14T22:51:47.188Z,9.57
2024-01-14T22:54:14.530Z,7.57
2024-01-14T22:56:41.509Z,4.47
2024-01-14T22:59:09.529Z,7.32
2024-01-14T23:01:36.673Z,9.68
2024-01-14T23:04:04.041Z,2.90
2024-01-14T23:06:31.696Z,2.53
2024-01-14T23:08:58.817Z,1.98
2024-01-14T23:11:25.645Z,2.25
2024-01-14T23:13:52.294Z,1.30
2024-01-14T23:16:18.920Z,2.30
2024-01-14T23:18:45.710Z,3.65
2024-01-14T23:21:12.490Z,3.03
2024-01-14T23:23:39.138Z,2.63
2024-01-14T23:26:06.318Z,1.75
2024-01-14T23:28:33.008Z,1.00
2024-01-14T23:31:00.100Z,1.52
2024-01-14T23:33:27.099Z,1.80
2024-01-14T23:35:53.903Z,1.63
2024-01-14T23:38:20.703Z,2.38
2024-01-14T23:40:47.338Z,1.60
2024-01-14T23:43:14.010Z,3.33
2024-01-14T23:45:40.711Z,2.17
2024-01-14T23:48:07.975Z,9.25
2024-01-14T23:50:34.869Z,3.90
2024-01-14T23:53:01.498Z,1.02
2024-01-14T23:55:28.143Z,2.10
2024-01-14T23:57:54.885Z,1.40
